createdAt,value
2018-09-20T00:00:12.793Z,21.97
2018-09-20T00:01:12.803Z,21.95
2018-09-20T00:02:12.821Z,21.94
2018-09-20T00:03:12.806Z,22.34
2018-09-20T00:04:12.828Z,22.62
2018-09-20T00:05:12.796Z,22.68
2018-09-20T00:06:12.802Z,22.67
2018-09-20T00:07:12.804Z,22.56
2018-09-20T00:08:12.835Z,22.28
2018-09-20T00:09:12.821Z,22.56
2018-09-20T00:10:12.819Z,21.91
2018-09-20T00:11:12.822Z,22.19
2018-09-20T00:12:12.831Z,22.14
2018-09-20T00:13:12.832Z,21.91
2018-09-20T00:14:12.852Z,21.79
2018-09-20T00:15:12.832Z,22.01
2018-09-20T00:16:12.834Z,22.31
2018-09-20T00:17:12.843Z,22.12
2018-09-20T00:18:12.860Z,22.01
2018-09-20T00:19:12.845Z,21.94
2018-09-20T00:20:12.858Z,21.74
2018-09-20T00:21:12.853Z,21.56
2018-09-20T00:22:12.862Z,21.67
2018-09-20T00:23:12.875Z,21.54
2018-09-20T00:24:12.877Z,21.50
2018-09-20T00:25:12.880Z,21.63
2018-09-20T00:26:12.877Z,21.54
2018-09-20T00:27:12.881Z,21.53
2018-09-20T00:28:12.885Z,21.91
2018-09-20T00:29:12.892Z,22.27
2018-09-20T00:30:21.604Z,21.82
2018-09-20T00:32:14.893Z,22.04
2018-09-20T00:33:05.810Z,22.13
2018-09-20T00:34:05.816Z,21.92
2018-09-20T00:35:05.813Z,21.72
2018-09-20T00:36:05.822Z,21.51
2018-09-20T00:37:05.864Z,21.92
2018-09-20T00:38:05.894Z,21.59
2018-09-20T00:39:05.831Z,21.51
2018-09-20T00:40:05.838Z,21.56
2018-09-20T00:41:05.839Z,21.59
2018-09-20T00:42:05.863Z,21.64
2018-09-20T00:43:05.839Z,21.74
2018-09-20T00:44:05.840Z,21.05
2018-09-20T00:45:05.894Z,21.20
2018-09-20T00:46:05.846Z,21.13
2018-09-20T00:47:05.862Z,21.32
2018-09-20T00:48:05.865Z,21.66
2018-09-20T00:49:05.857Z,21.88
2018-09-20T00:50:05.876Z,21.30
2018-09-20T00:51:05.869Z,21.35
2018-09-20T00:52:05.911Z,20.74
2018-09-20T00:53:05.876Z,20.46
2018-09-20T00:54:05.878Z,20.47
2018-09-20T00:55:05.884Z,20.35
2018-09-20T00:56:05.886Z,20.16
2018-09-20T00:57:05.884Z,20.33
2018-09-20T00:58:05.913Z,20.62
2018-09-20T00:59:05.915Z,20.46
2018-09-20T01:00:05.899Z,20.56
2018-09-20T01:01:05.909Z,20.34
2018-09-20T01:02:05.899Z,20.47
2018-09-20T01:03:05.906Z,20.47
2018-09-20T01:04:05.906Z,20.53
2018-09-20T01:05:05.920Z,20.49
2018-09-20T01:06:05.919Z,20.46
2018-09-20T01:07:05.945Z,20.53
2018-09-20T01:08:05.917Z,20.59
2018-09-20T01:09:05.921Z,20.99
2018-09-20T01:10:05.921Z,20.93
2018-09-20T01:11:05.925Z,20.99
2018-09-20T01:12:05.945Z,21.13
2018-09-20T01:13:05.936Z,20.80
2018-09-20T01:14:05.932Z,20.86
2018-09-20T01:15:05.961Z,21.11
2018-09-20T01:16:05.951Z,21.16
2018-09-20T01:17:05.942Z,20.54
2018-09-20T01:18:05.950Z,20.84
2018-09-20T01:19:05.968Z,20.58
2018-09-20T01:20:05.962Z,20.43
2018-09-20T01:21:05.958Z,20.33
2018-09-20T01:22:05.956Z,20.10
2018-09-20T01:23:05.982Z,20.58
2018-09-20T01:24:05.968Z,20.35
2018-09-20T01:25:05.997Z,20.34
2018-09-20T01:26:05.979Z,20.74
2018-09-20T01:27:06.011Z,20.61
2018-09-20T01:28:05.995Z,20.80
2018-09-20T01:29:05.981Z,21.38
2018-09-20T01:30:05.997Z,21.36
2018-09-20T01:31:05.987Z,20.89
2018-09-20T01:32:05.985Z,20.90
2018-09-20T01:33:05.996Z,20.87
2018-09-20T01:34:05.993Z,21.56
2018-09-20T01:35:06.007Z,21.78
2018-09-20T01:36:06.004Z,21.76
2018-09-20T01:37:06.001Z,21.45
2018-09-20T01:38:06.024Z,21.36
2018-09-20T01:39:06.002Z,21.66
2018-09-20T01:40:06.027Z,21.32
2018-09-20T01:41:06.007Z,21.04
2018-09-20T01:42:06.042Z,20.99
2018-09-20T01:43:06.031Z,20.89
2018-09-20T01:44:06.020Z,20.98
2018-09-20T01:45:06.033Z,20.62
2018-09-20T01:46:06.047Z,20.30
2018-09-20T01:47:06.037Z,20.59
2018-09-20T01:48:06.029Z,20.27
2018-09-20T01:49:06.031Z,20.20
2018-09-20T01:50:06.071Z,20.08
2018-09-20T01:51:06.043Z,20.05
2018-09-20T01:52:06.044Z,19.76
2018-09-20T01:53:06.038Z,19.57
2018-09-20T01:54:06.042Z,19.40
2018-09-20T01:55:06.048Z,19.05
2018-09-20T01:56:06.047Z,19.17
2018-09-20T01:57:06.062Z,19.15
2018-09-20T01:58:06.062Z,19.10
2018-09-20T01:59:06.063Z,19.01
2018-09-20T02:00:06.079Z,18.73
2018-09-20T02:01:06.071Z,18.95
2018-09-20T02:02:06.118Z,19.50
2018-09-20T02:03:06.070Z,19.84
2018-09-20T02:04:16.641Z,19.91
2018-09-20T02:05:59.519Z,19.72
2018-09-20T02:06:59.480Z,19.83
2018-09-20T02:07:59.481Z,19.86
2018-09-20T02:08:59.474Z,19.57
2018-09-20T02:09:59.486Z,19.73
2018-09-20T02:10:59.513Z,19.87
2018-09-20T02:11:59.490Z,19.83
2018-09-20T02:12:59.492Z,19.91
2018-09-20T02:13:59.494Z,19.87
2018-09-20T02:14:59.499Z,19.54
2018-09-20T02:15:59.494Z,19.60
2018-09-20T02:16:59.498Z,19.72
2018-09-20T02:18:08.292Z,19.78
2018-09-20T02:20:02.052Z,19.80
2018-09-20T02:21:01.643Z,20.59
2018-09-20T02:22:46.362Z,20.35
2018-09-20T02:23:54.998Z,20.33
2018-09-20T02:25:48.935Z,19.93
2018-09-20T02:26:48.833Z,20.08
2018-09-20T02:28:42.493Z,19.90
2018-09-20T02:31:03.601Z,20.25
2018-09-20T02:32:01.624Z,20.39
2018-09-20T02:33:47.834Z,20.42
2018-09-20T02:34:47.812Z,20.13
2018-09-20T02:35:47.909Z,20.20
2018-09-20T02:36:47.804Z,20.24
2018-09-20T02:37:47.797Z,20.25
2018-09-20T02:38:47.813Z,20.39
2018-09-20T03:14:55.007Z,20.13
2018-09-20T03:15:54.990Z,20.06
2018-09-20T03:16:54.971Z,20.34
2018-09-20T03:18:04.689Z,20.46
2018-09-20T03:19:48.381Z,20.06
2018-09-20T03:20:48.368Z,20.02
2018-09-20T03:21:48.386Z,20.05
2018-09-20T03:22:48.364Z,20.06
2018-09-20T03:23:48.365Z,20.05
2018-09-20T03:24:48.369Z,20.03
2018-09-20T03:25:48.383Z,20.25
2018-09-20T03:26:48.365Z,20.23
2018-09-20T03:27:48.375Z,20.02
2018-09-20T03:28:48.368Z,20.12
2018-09-20T03:29:48.371Z,20.03
2018-09-20T03:30:48.486Z,19.88
2018-09-20T03:31:48.380Z,19.70
2018-09-20T03:32:48.386Z,19.61
2018-09-20T03:33:48.389Z,19.78
2018-09-20T03:34:48.380Z,20.09
2018-09-20T03:35:56.156Z,19.60
2018-09-20T03:37:41.800Z,19.33
